Willow River, Canada
Current Conditions -  °F | °C
As of 6:13 AM on Saturday 22 Nov 2014 (Local Time) from CYXS Reporting Station
Overcast Overcast  
Wind Chill: 29°   Ceiling: 2300
Heat Index: 36°   Visibility: 9mi
Dew Point: 34°   Wind: 9mph
Humidity: 93%   Direction: 240°WSW
Pressure: 29.27"   Gusts: 17mph
Location:  54.07°N, 122.47°W
Report Text: CYXS 221413Z AUTO 24008G15KT 9SM SCT017 BKN023 BKN028 OVC038 02/01 A2927 RMK SLP937
Loading
Personal Weather Stations






























Interactive Weather Map New forecast layout! Learn more

10-Day Weather Forecast

Advertisements
Track Severe Weather on mobile